Flight Track Log - Related Links

Times and Time Zones

All times are in EDT time to prevent confusion due to time zone crossing. See the N935SS flight status page for this flight to view local times or setup timezone preferences in your user account.

Time Position Orientation Groundspeed Altitude Reporting Facility
EDT Latitude Longitude Course Direction KTS MPH feet Rate Location/Type
Thu 01:05:39 PM 41.0500 -73.7000 217° Southwest 171 197 1,200  Level New York TRACON
Thu 01:06:33 PM 41.0167 -73.7333 217° Southwest 217 250 2,900 1,700 Climbing New York TRACON
Thu 01:07:39 PM 41.0500 -73.8000 304° West 251 289 4,600 2,755 Climbing New York TRACON
Thu 01:09:12 PM 41.1392 -73.8511 337° Northwest 273 314 10,200 2,510 Climbing Boston Center
Thu 01:10:12 PM 41.1758 -73.7472 65° Northeast 291 335 11,000 454 Climbing Boston Center
Thu 01:11:11 PM 41.2150 -73.5853 72° East 378 435 11,100 1,815 Climbing Boston Center
Thu 01:12:11 PM 41.2600 -73.4644 64° Northeast 408 470 14,600 3,322 Climbing Boston Center
Thu 01:13:12 PM 41.3089 -73.3328 64° Northeast 396 456 17,800 2,218 Climbing Boston Center
Thu 01:14:10 PM 41.3622 -73.1925 63° Northeast 391 450 19,000 610 Climbing Boston Center
Thu 01:15:10 PM 41.3817 -73.0625 79° East 386 444 19,000  Level Boston Center
Thu 01:16:11 PM 41.3156 -72.9431 126° Southeast 338 389 19,000  Level Boston Center
Thu 01:17:11 PM 41.2472 -72.8375 131° Southeast 355 409 19,000  Level Boston Center
Thu 01:18:11 PM 41.2414 -72.7022 93° East 354 407 19,000  Level Boston Center
Thu 01:19:10 PM 41.2894 -72.5781 63° Northeast 356 410 19,000  Level Boston Center
Thu 01:20:11 PM 41.3500 -72.4236 62° Northeast 407 468 19,000  Level Boston Center
Thu 01:21:12 PM 41.4000 -72.2933 63° Northeast 433 498 19,000  Level Boston Center
Thu 01:22:12 PM 41.4622 -72.1353 62° Northeast 433 498 19,000 -458 Level Boston Center
Thu 01:23:10 PM 41.5117 -72.0047 63° Northeast 428 493 18,100 -1,462 Descending Boston Center
Thu 01:24:11 PM 41.5694 -71.8519 63° Northeast 422 486 16,100 -1,770 Descending Boston Center
Thu 01:25:12 PM 41.6125 -71.7319 64° Northeast 411 473 14,500 -1,721 Descending Boston Center
Thu 01:26:13 PM 41.6697 -71.5786 63° Northeast 411 473 12,600 -1,714 Descending Boston Center
Thu 01:27:11 PM 41.7147 -71.4583 63° Northeast 401 461 11,100 -814 Descending Boston Center
Thu 01:28:11 PM 41.7614 -71.3297 64° Northeast 362 417 11,000 -50 Descending Boston Center
Thu 01:29:12 PM 41.7917 -71.2289 68° East 330 380 11,000 -50 Level Boston Center
Thu 01:30:10 PM 41.8278 -71.1139 67° East 307 353 10,900 -743 Descending Boston Center
Thu 01:30:57 PM 41.8833 -71.1000 11° North 235 270 9,700 -1,570 Descending KA90
Thu 01:31:57 PM 41.9500 -71.1333 340° North 233 268 8,100 -1,667 Descending KA90
Thu 01:33:03 PM 42.0167 -71.1167 11° North 229 264 6,200 -1,700 Descending KA90
Thu 01:33:57 PM 42.0667 -71.1167 360° North 222 255 4,700 -1,474 Descending KA90
Thu 01:34:57 PM 42.1167 -71.1000 14° North 210 242 3,400 -850 Descending KA90
Thu 01:35:57 PM 42.1833 -71.1000 360° North 211 243 3,000 -381 Descending KA90
Thu 01:37:03 PM 42.2333 -71.0667 26° Northeast 204 235 2,600 -714 Descending KA90
Thu 01:38:03 PM 42.2833 -71.0500 14° North 167 192 1,500 -950 Descending KA90
Thu 01:39:03 PM 42.3167 -71.0167 36° Northeast 137 158 700 -800 Descending KA90
Thu 01:43:00 PM 42.3500 -71.0000 North  Level FlightAware Approximate
Thu 01:50:00 PM 42.3630 -71.0064 North  Level Estimated
Thu 01:51:00 PM 42.3630 -71.0064 North  Level Estimated
Thu 01:52:00 PM 42.3630 -71.0064 North  Level Estimated
Thu 01:53:00 PM 42.3630 -71.0064 North  Level Estimated
Thu 01:54:00 PM 42.3630 -71.0064 North  Level Estimated
Thu 01:55:00 PM 42.3630 -71.0064 North  Level Estimated

Login

Don't have an account? Register now (free) for customized features, flight alerts, and more!